Time;durP1;ratioP1;P1;durP2;ratioP2;P2;SDS_P1;SDS_P2;PMS_P1;PMS_P2;Temp;Humidity;BMP_temperature;BMP_pressure;BME280_temperature;BME280_humidity;BME280_pressure;Samples;Min_cycle;Max_cycle;Signal;HPM_P1;HPM_P2
2020/12/07 00:01:33;;;;;;;112.78;39.22;;;;;;;3.28;100.00;99516.88;6224554;28;20554;-75
2020/12/07 00:04:34;;;;;;;109.43;37.97;;;;;;;3.27;100.00;99502.22;6225065;28;20048;-75
2020/12/07 00:07:36;;;;;;;114.32;38.72;;;;;;;3.26;100.00;99492.72;6224573;28;20050;-76
2020/12/07 00:10:37;;;;;;;101.05;35.15;;;;;;;3.26;100.00;99497.91;6224388;28;20072;-75
2020/12/07 00:13:39;;;;;;;99.65;36.88;;;;;;;3.28;100.00;99500.47;6224624;28;20050;-76
2020/12/07 00:16:43;;;;;;;115.00;40.70;;;;;;;3.28;100.00;99498.72;6224165;28;20396;-76
2020/12/07 00:19:44;;;;;;;108.55;38.00;;;;;;;3.35;100.00;99514.00;6224135;28;20430;-75
2020/12/07 00:22:45;;;;;;;109.45;38.50;;;;;;;3.35;100.00;99506.22;6234190;28;20053;-75
2020/12/07 00:25:46;;;;;;;123.32;39.00;;;;;;;3.31;100.00;99492.53;6248936;28;20049;-76
2020/12/07 00:28:47;;;;;;;110.80;37.88;;;;;;;3.36;100.00;99489.72;6248344;28;20049;-75
2020/12/07 00:31:48;;;;;;;111.38;38.85;;;;;;;3.34;100.00;99492.41;6248903;28;20057;-75
2020/12/07 00:34:50;;;;;;;108.53;37.38;;;;;;;3.34;100.00;99476.81;6248669;28;20418;-76
2020/12/07 00:37:51;;;;;;;112.10;37.90;;;;;;;3.31;100.00;99464.81;6248634;28;20045;-75
2020/12/07 00:40:52;;;;;;;98.75;36.42;;;;;;;3.29;100.00;99461.44;6248346;28;20148;-75
2020/12/07 00:43:53;;;;;;;94.43;34.70;;;;;;;3.27;100.00;99452.91;6248461;28;20080;-76
2020/12/07 00:46:54;;;;;;;108.25;37.38;;;;;;;3.25;100.00;99449.50;6248213;28;20049;-76
2020/12/07 00:49:55;;;;;;;106.10;37.53;;;;;;;3.27;100.00;99452.91;6248028;28;20056;-76
2020/12/07 00:52:56;;;;;;;103.65;37.13;;;;;;;3.28;100.00;99459.78;6233366;28;20422;-76
2020/12/07 00:55:57;;;;;;;108.03;37.15;;;;;;;3.28;100.00;99454.56;6223454;28;20042;-75
2020/12/07 00:58:58;;;;;;;95.43;34.67;;;;;;;3.30;100.00;99470.91;6223380;28;20072;-75
2020/12/07 01:01:59;;;;;;;106.80;39.42;;;;;;;3.22;100.00;99479.94;6223523;28;20058;-76
2020/12/07 01:05:00;;;;;;;104.40;37.33;;;;;;;3.20;100.00;99467.03;6223751;28;20049;-76
2020/12/07 01:08:02;;;;;;;121.63;41.22;;;;;;;3.24;100.00;99463.41;6223198;28;20097;-76
2020/12/07 01:11:03;;;;;;;96.03;36.38;;;;;;;3.27;100.00;99455.50;6223370;28;20054;-76
2020/12/07 01:14:03;;;;;;;108.10;40.50;;;;;;;3.27;100.00;99433.84;6223443;28;20108;-76
2020/12/07 01:17:04;;;;;;;109.05;37.97;;;;;;;3.24;100.00;99427.06;6223004;28;20053;-78
2020/12/07 01:20:05;;;;;;;99.53;37.47;;;;;;;3.22;100.00;99412.44;6222931;28;20069;-76
2020/12/07 01:23:07;;;;;;;109.70;38.33;;;;;;;3.23;100.00;99401.19;6223242;28;20108;-75
2020/12/07 01:26:08;;;;;;;104.63;36.28;;;;;;;3.26;100.00;99424.38;6222823;28;20049;-75
2020/12/07 01:29:09;;;;;;;101.85;37.20;;;;;;;3.28;100.00;99423.41;6222753;28;20053;-75
2020/12/07 01:32:10;;;;;;;103.40;35.97;;;;;;;3.28;100.00;99428.63;6223041;28;20049;-76
2020/12/07 01:35:11;;;;;;;104.22;37.53;;;;;;;3.29;100.00;99445.88;6222883;28;20049;-76
2020/12/07 01:38:12;;;;;;;104.53;37.65;;;;;;;3.29;100.00;99451.06;6222758;28;20495;-76
2020/12/07 01:41:13;;;;;;;102.20;36.55;;;;;;;3.30;100.00;99450.16;6222549;28;20510;-76
2020/12/07 01:44:14;;;;;;;104.50;36.70;;;;;;;3.31;100.00;99443.19;6222513;28;20042;-76
2020/12/07 01:47:22;;;;;;;105.55;37.67;;;;;;;3.33;100.00;99441.38;6222572;28;20045;-76
2020/12/07 01:50:22;;;;;;;97.70;35.55;;;;;;;3.30;100.00;99433.72;6222161;28;20133;-76
2020/12/07 01:53:24;;;;;;;101.55;36.83;;;;;;;3.28;100.00;99414.78;6244799;28;20509;-76
2020/12/07 01:56:27;;;;;;;113.20;39.03;;;;;;;3.29;100.00;99417.31;6246670;28;20529;-76
2020/12/07 01:59:28;;;;;;;117.07;39.33;;;;;;;3.30;100.00;99418.16;6246464;28;20072;-76
2020/12/07 02:02:29;;;;;;;113.18;38.47;;;;;;;3.34;100.00;99427.50;6246648;28;20139;-76
2020/12/07 02:05:31;;;;;;;99.38;37.33;;;;;;;3.30;100.00;99415.56;6246748;28;20042;-76
2020/12/07 02:08:32;;;;;;;94.13;35.83;;;;;;;3.31;100.00;99391.28;6245935;28;20053;-76
2020/12/07 02:11:33;;;;;;;100.13;36.83;;;;;;;3.31;100.00;99391.28;6246665;28;20071;-76
2020/12/07 02:14:34;;;;;;;95.80;35.38;;;;;;;3.34;100.00;99387.72;6246524;28;20510;-76
2020/12/07 02:17:35;;;;;;;97.50;35.75;;;;;;;3.31;100.00;99383.47;6246384;28;20081;-76
2020/12/07 02:20:37;;;;;;;103.97;37.50;;;;;;;3.29;100.00;99388.75;6245563;28;20054;-78
2020/12/07 02:23:37;;;;;;;122.72;41.20;;;;;;;3.30;100.00;99390.44;6246502;28;20048;-75
2020/12/07 02:26:38;;;;;;;113.88;38.83;;;;;;;3.34;100.00;99400.69;6246198;28;20049;-76
2020/12/07 02:29:39;;;;;;;95.47;35.03;;;;;;;3.35;100.00;99411.00;6246049;28;20060;-76
2020/12/07 02:32:40;;;;;;;104.25;37.33;;;;;;;3.34;100.00;99413.66;6246445;28;20050;-76
2020/12/07 02:35:41;;;;;;;109.28;40.00;;;;;;;3.31;100.00;99422.44;6246362;28;20049;-76
2020/12/07 02:38:42;;;;;;;99.18;36.22;;;;;;;3.32;100.00;99416.34;6245965;28;20068;-76
2020/12/07 02:41:44;;;;;;;96.60;35.88;;;;;;;3.32;100.00;99416.34;6246408;28;20534;-76
2020/12/07 02:44:44;;;;;;;90.43;33.85;;;;;;;3.35;100.00;99405.81;6246036;28;20041;-76
2020/12/07 02:47:46;;;;;;;98.88;35.72;;;;;;;3.33;100.00;99389.47;6246163;28;20060;-76
2020/12/07 02:50:47;;;;;;;98.60;36.22;;;;;;;3.31;100.00;99393.88;6244987;28;20041;-76
2020/12/07 02:53:48;;;;;;;97.05;35.10;;;;;;;3.31;100.00;99383.47;6246120;28;20053;-76
2020/12/07 02:56:49;;;;;;;100.28;35.97;;;;;;;3.30;100.00;99389.59;6245743;28;20048;-76
2020/12/07 02:59:51;;;;;;;101.03;35.47;;;;;;;3.31;100.00;99383.47;6245824;28;20478;-76
2020/12/07 03:02:51;;;;;;;96.22;36.00;;;;;;;3.33;100.00;99391.22;6245849;28;20053;-76
2020/12/07 03:05:53;;;;;;;97.88;36.20;;;;;;;3.34;100.00;99401.53;6245990;28;20045;-76
2020/12/07 03:08:54;;;;;;;97.85;35.50;;;;;;;3.31;100.00;99394.69;6245408;28;20403;-76
2020/12/07 03:11:55;;;;;;;99.53;35.15;;;;;;;3.31;100.00;99371.34;6243358;28;20061;-76
2020/12/07 03:14:56;;;;;;;92.95;34.05;;;;;;;3.32;100.00;99367.00;6245484;28;20417;-76
2020/12/07 03:17:56;;;;;;;99.15;37.28;;;;;;;3.34;100.00;99388.53;6245493;28;20049;-76
2020/12/07 03:20:58;;;;;;;102.03;36.92;;;;;;;3.35;100.00;99391.97;6246871;28;20046;-76
2020/12/07 03:23:59;;;;;;;95.65;36.10;;;;;;;3.35;100.00;99379.00;6250762;28;20076;-76
2020/12/07 03:27:00;;;;;;;97.60;34.80;;;;;;;3.32;100.00;99361.81;6249782;28;20045;-75
2020/12/07 03:30:00;;;;;;;94.75;35.85;;;;;;;3.31;100.00;99365.31;6250064;28;20049;-75
2020/12/07 03:33:01;;;;;;;98.95;36.28;;;;;;;3.30;100.00;99359.28;6250221;28;20049;-75
2020/12/07 03:36:03;;;;;;;98.82;36.00;;;;;;;3.30;100.00;99366.22;6250211;28;20053;-75
2020/12/07 03:39:05;;;;;;;92.65;34.60;;;;;;;3.26;100.00;99372.47;6249853;28;20057;-75
2020/12/07 03:42:05;;;;;;;93.28;35.45;;;;;;;3.21;100.00;99385.66;6229210;28;20081;-75
2020/12/07 03:45:06;;;;;;;98.93;35.88;;;;;;;3.20;100.00;99393.53;6225320;28;20046;-75
2020/12/07 03:48:07;;;;;;;92.35;37.17;;;;;;;3.21;100.00;99401.22;6225194;28;20046;-75
2020/12/07 03:51:09;;;;;;;98.72;36.05;;;;;;;3.23;100.00;99383.84;6241495;28;20068;-75
2020/12/07 03:54:10;;;;;;;103.70;35.78;;;;;;;3.23;100.00;99346.66;6249563;28;20064;-77
2020/12/07 03:57:11;;;;;;;100.97;36.05;;;;;;;3.25;100.00;99335.28;6225503;28;20049;-76
2020/12/07 04:00:12;;;;;;;102.30;37.42;;;;;;;3.26;100.00;99349.94;6224794;28;20056;-77
2020/12/07 04:03:14;;;;;;;95.57;35.85;;;;;;;3.25;100.00;99327.50;6225131;28;20196;-76
2020/12/07 04:06:19;;;;;;;101.18;37.70;;;;;;;3.26;100.00;99336.13;6224674;28;20112;-77
2020/12/07 04:09:20;;;;;;;104.30;39.47;;;;;;;3.25;100.00;99352.63;6224673;28;20410;-76
2020/12/07 04:12:20;;;;;;;97.57;37.47;;;;;;;3.23;100.00;99344.06;6225026;28;20049;-77
2020/12/07 04:15:21;;;;;;;103.35;37.50;;;;;;;3.24;100.00;99341.41;6224736;28;20391;-77
2020/12/07 04:18:22;;;;;;;96.70;36.95;;;;;;;3.22;100.00;99365.72;6224648;28;20053;-77
2020/12/07 04:21:24;;;;;;;96.18;36.42;;;;;;;3.19;100.00;99360.69;6224200;28;20519;-77
2020/12/07 04:24:25;;;;;;;102.30;38.80;;;;;;;3.18;100.00;99369.38;6224780;28;20056;-77
2020/12/07 04:27:25;;;;;;;90.35;35.90;;;;;;;3.21;100.00;99372.69;6224097;28;20491;-77
2020/12/07 04:30:26;;;;;;;90.30;35.10;;;;;;;3.25;100.00;99356.06;6223569;28;20061;-77
2020/12/07 04:33:27;;;;;;;92.43;34.03;;;;;;;3.28;100.00;99342.94;6223838;28;20050;-77
2020/12/07 04:36:29;;;;;;;97.78;37.60;;;;;;;3.28;100.00;99355.91;6223981;28;20050;-77
2020/12/07 04:39:30;;;;;;;98.95;35.90;;;;;;;3.29;100.00;99338.59;6223899;28;20053;-77
2020/12/07 04:42:31;;;;;;;99.00;37.50;;;;;;;3.30;100.00;99343.69;6224349;28;20046;-76
2020/12/07 04:45:32;;;;;;;104.43;38.30;;;;;;;3.30;100.00;99346.28;6223903;28;20490;-77
2020/12/07 04:48:35;;;;;;;96.00;36.08;;;;;;;3.29;100.00;99342.03;6223774;28;20057;-77
2020/12/07 04:51:37;;;;;;;92.28;36.53;;;;;;;3.31;100.00;99345.38;6223976;28;20046;-77
2020/12/07 04:54:38;;;;;;;98.28;37.30;;;;;;;3.30;100.00;99337.66;6257857;28;20041;-77
2020/12/07 04:57:39;;;;;;;94.63;36.38;;;;;;;3.29;100.00;99331.63;6274866;22;20053;-78
2020/12/07 05:00:40;;;;;;;100.13;38.10;;;;;;;3.31;100.00;99334.16;6247941;28;20060;-78
2020/12/07 05:03:41;;;;;;;99.50;38.63;;;;;;;3.29;100.00;99342.03;6248708;28;20054;-78
2020/12/07 05:06:43;;;;;;;106.05;38.70;;;;;;;3.30;100.00;99327.28;6248706;28;20045;-78
2020/12/07 05:09:44;;;;;;;96.70;36.40;;;;;;;3.30;100.00;99328.13;6248453;28;20049;-78
2020/12/07 05:12:48;;;;;;;91.55;35.22;;;;;;;3.30;100.00;99320.34;6248557;28;20056;-78
2020/12/07 05:15:49;;;;;;;93.20;36.50;;;;;;;3.33;100.00;99324.56;6248350;28;20050;-78
2020/12/07 05:18:50;;;;;;;101.32;37.00;;;;;;;3.31;100.00;99321.16;6247951;28;20056;-78
2020/12/07 05:21:54;;;;;;;97.03;38.55;;;;;;;3.32;100.00;99307.31;6248190;28;20083;-78
2020/12/07 05:24:55;;;;;;;99.70;38.90;;;;;;;3.33;100.00;99292.56;6248508;28;20042;-78
2020/12/07 05:27:58;;;;;;;100.93;35.70;;;;;;;3.35;100.00;99304.53;6246814;28;20053;-79
2020/12/07 05:31:00;;;;;;;93.85;35.72;;;;;;;3.35;100.00;99303.69;6247866;28;20061;-79
2020/12/07 05:34:05;;;;;;;90.25;36.05;;;;;;;3.35;100.00;99306.28;6247605;28;20056;-78
2020/12/07 05:37:06;;;;;;;93.38;36.08;;;;;;;3.34;100.00;99302.03;6247735;28;20493;-79
2020/12/07 05:40:15;;;;;;;101.90;38.70;;;;;;;3.27;100.00;99304.06;6247301;28;20060;-79
2020/12/07 05:43:20;;;;;;;93.80;35.95;;;;;;;3.26;100.00;99303.22;6246239;28;20046;-79
2020/12/07 05:46:26;;;;;;;91.50;36.40;;;;;;;3.28;100.00;99310.94;6247486;28;20050;-79
2020/12/07 05:49:29;;;;;;;95.35;36.05;;;;;;;3.24;100.00;99314.59;6247424;28;20049;-78
2020/12/07 05:52:40;;;;;;;87.22;33.53;;;;;;;3.26;100.00;99316.19;6247829;28;20061;-79
2020/12/07 05:55:41;;;;;;;100.15;36.97;;;;;;;3.27;100.00;99325.69;6248413;28;20057;-79
2020/12/07 05:58:56;;;;;;;88.07;36.35;;;;;;;3.25;100.00;99334.44;6247018;28;20056;-79
2020/12/07 06:01:59;;;;;;;96.25;37.60;;;;;;;3.26;100.00;99328.34;6247963;28;20057;-79
2020/12/07 06:05:13;;;;;;;97.57;36.92;;;;;;;3.26;100.00;99338.72;6247828;28;20049;-79
2020/12/07 06:08:19;;;;;;;89.30;36.63;;;;;;;3.27;100.00;99337.81;6248194;28;20049;-79
2020/12/07 06:11:22;;;;;;;102.13;38.85;;;;;;;3.27;100.00;99341.25;6248637;28;20060;-79
2020/12/07 06:14:24;;;;;;;94.95;35.63;;;;;;;3.26;100.00;99325.75;6247793;28;20049;-78
2020/12/07 06:17:29;;;;;;;103.32;37.92;;;;;;;3.28;100.00;99329.13;6247238;28;20052;-78
2020/12/07 06:20:33;;;;;;;96.97;35.88;;;;;;;3.27;100.00;99336.06;6247431;28;20053;-78
2020/12/07 06:23:37;;;;;;;106.78;38.33;;;;;;;3.26;100.00;99339.56;6247478;28;20140;-78
2020/12/07 06:26:38;;;;;;;101.88;37.47;;;;;;;3.26;100.00;99330.94;6246382;28;20486;-78
2020/12/07 06:29:55;;;;;;;97.93;36.38;;;;;;;3.27;100.00;99343.00;6246983;28;20052;-78
2020/12/07 06:32:55;;;;;;;102.40;38.08;;;;;;;3.28;100.00;99353.31;6247882;28;20060;-78
2020/12/07 06:35:57;;;;;;;90.25;34.42;;;;;;;3.31;100.00;99352.31;6247304;28;20046;-78
2020/12/07 06:39:00;;;;;;;101.60;37.75;;;;;;;3.28;100.00;99349.91;6247103;28;20045;-78
2020/12/07 06:42:02;;;;;;;93.15;36.08;;;;;;;3.27;100.00;99345.59;6247510;28;20049;-78
2020/12/07 06:45:03;;;;;;;101.45;38.83;;;;;;;3.26;100.00;99356.88;6246862;28;20041;-78
2020/12/07 06:48:07;;;;;;;94.10;36.47;;;;;;;3.24;100.00;99349.19;6246702;28;20064;-78
2020/12/07 06:51:08;;;;;;;97.40;37.50;;;;;;;3.27;100.00;99364.63;6246709;28;20104;-78
2020/12/07 06:55:02;;;;;;;89.28;35.55;;;;;;;3.24;100.00;99361.31;6247911;28;20104;-79
2020/12/07 06:57:39;;;;;;;92.88;35.20;;;;;;;3.26;100.00;99362.09;6251943;28;20525;-79
2020/12/07 07:00:40;;;;;;;97.20;36.33;;;;;;;3.30;100.00;99361.03;6251762;28;20060;-79
2020/12/07 07:03:49;;;;;;;101.30;37.38;;;;;;;3.26;100.00;99378.50;6251711;28;20049;-78
2020/12/07 07:06:57;;;;;;;107.50;38.30;;;;;;;3.26;100.00;99367.28;6249892;28;20057;-79
2020/12/07 07:10:00;;;;;;;97.18;35.63;;;;;;;3.27;100.00;99374.16;6251113;28;20425;-74
2020/12/07 07:13:00;;;;;;;95.97;33.65;;;;;;;3.27;100.00;99367.22;6250624;28;20413;-74
2020/12/07 07:16:02;;;;;;;94.47;34.92;;;;;;;3.27;100.00;99374.16;6250408;28;20054;-73
2020/12/07 07:19:04;;;;;;;95.82;36.38;;;;;;;3.26;100.00;99364.69;6250534;28;20056;-74
2020/12/07 07:22:05;;;;;;;95.93;34.25;;;;;;;3.28;100.00;99370.66;6250481;28;20409;-74
2020/12/07 07:25:20;;;;;;;101.07;35.25;;;;;;;3.28;100.00;99370.66;6250717;28;20050;-74
2020/12/07 07:28:21;;;;;;;86.85;34.05;;;;;;;3.28;100.00;99381.03;6250131;28;20050;-74
2020/12/07 07:31:22;;;;;;;87.32;31.60;;;;;;;3.27;100.00;99384.53;6250312;28;20076;-73
2020/12/07 07:34:23;;;;;;;89.72;34.65;;;;;;;3.23;100.00;99378.66;6250221;28;20057;-73
2020/12/07 07:37:24;;;;;;;94.13;33.03;;;;;;;3.24;100.00;99372.53;6249855;28;20045;-73
2020/12/07 07:40:27;;;;;;;83.45;32.45;;;;;;;3.25;100.00;99363.84;6249934;28;20609;-74
2020/12/07 07:43:29;;;;;;;75.38;30.33;;;;;;;3.25;100.00;99379.41;6250112;28;20103;-74
2020/12/07 07:46:33;;;;;;;73.43;28.95;;;;;;;3.30;100.00;99394.78;6249745;28;20049;-73
2020/12/07 07:50:07;;;;;;;70.38;27.60;;;;;;;3.28;100.00;99391.44;6249567;28;20060;-73
2020/12/07 08:06:01;;;;;;;;;;;;;;;3.29;100.00;99388.75;6214192;28;20045;-74
2020/12/07 08:17:04;;;;;;;44.33;18.70;;;;;;;3.24;100.00;99427.06;6249123;28;20057;-74
2020/12/07 08:20:07;;;;;;;40.10;16.85;;;;;;;3.18;100.00;99419.56;6249034;28;20060;-73
2020/12/07 08:23:08;;;;;;;40.67;16.38;;;;;;;3.21;100.00;99406.41;6249309;28;20130;-74
2020/12/07 08:26:18;;;;;;;38.22;15.98;;;;;;;3.25;100.00;99426.16;6248632;28;20072;-74
2020/12/07 08:29:19;;;;;;;28.05;13.25;;;;;;;3.30;100.00;99434.56;6248514;28;20049;-74
2020/12/07 08:32:22;;;;;;;29.65;12.80;;;;;;;3.21;100.00;99440.16;6249222;28;20057;-73
2020/12/07 08:35:24;;;;;;;26.10;12.32;;;;;;;3.24;100.00;99428.81;6248760;28;20041;-74
2020/12/07 08:38:26;;;;;;;26.40;12.05;;;;;;;3.21;100.00;99458.34;6248441;28;20049;-74
2020/12/07 08:41:29;;;;;;;26.92;10.85;;;;;;;3.21;100.00;99453.16;6248101;28;20509;-74
2020/12/07 08:44:31;;;;;;;23.00;10.65;;;;;;;3.21;100.00;99439.34;6248318;28;20049;-74
2020/12/07 08:47:32;;;;;;;21.70;10.98;;;;;;;3.21;100.00;99458.34;6247573;28;20052;-74
2020/12/07 08:50:33;;;;;;;18.15;8.52;;;;;;;3.25;100.00;99466.84;6248232;28;20053;-74
2020/12/07 08:53:34;;;;;;;17.15;7.85;;;;;;;3.22;100.00;99479.94;6247782;28;20506;-76
2020/12/07 08:56:34;;;;;;;16.58;8.23;;;;;;;3.24;100.00;99486.78;6239513;28;20422;-76
2020/12/07 08:59:36;;;;;;;13.23;6.78;;;;;;;3.25;100.00;99503.19;6248011;28;20144;-77
2020/12/07 09:02:37;;;;;;;15.35;7.10;;;;;;;3.23;100.00;99505.03;6248021;28;20056;-77
2020/12/07 09:05:38;;;;;;;13.15;6.30;;;;;;;3.28;100.00;99514.28;6247956;28;20042;-76
2020/12/07 09:08:40;;;;;;;11.88;6.15;;;;;;;3.20;100.00;99512.94;6238887;28;20056;-76
2020/12/07 09:11:41;;;;;;;12.13;6.15;;;;;;;3.21;100.00;99509.41;6245959;28;20052;-76
2020/12/07 09:14:44;;;;;;;12.07;6.10;;;;;;;3.29;100.00;99499.56;6239413;28;20049;-76
2020/12/07 09:17:45;;;;;;;11.60;6.28;;;;;;;3.25;100.00;99498.84;6240024;28;20049;-76
2020/12/07 09:20:46;;;;;;;7.82;5.25;;;;;;;3.26;100.00;99504.88;6247658;28;20391;-76
2020/12/07 09:23:47;;;;;;;9.82;5.05;;;;;;;3.36;100.00;99515.69;6246414;28;20046;-76
2020/12/07 09:26:48;;;;;;;9.77;4.60;;;;;;;3.28;100.00;99519.47;6245636;28;20052;-76
2020/12/07 09:29:49;;;;;;;7.15;4.78;;;;;;;3.30;100.00;99522.00;6237996;28;20050;-76
2020/12/07 09:32:50;;;;;;;9.30;4.70;;;;;;;3.33;100.00;99514.09;6245076;28;20049;-77
2020/12/07 09:35:51;;;;;;;8.55;5.18;;;;;;;3.40;100.00;99518.09;6238575;28;20056;-73
2020/12/07 09:38:52;;;;;;;10.10;4.90;;;;;;;3.30;100.00;99511.63;6246918;28;20056;-73
2020/12/07 09:41:53;;;;;;;7.70;4.55;;;;;;;3.38;100.00;99513.88;6247120;28;20056;-76
2020/12/07 09:44:54;;;;;;;10.60;5.72;;;;;;;3.35;100.00;99521.81;6245671;28;20076;-76
2020/12/07 09:47:55;;;;;;;8.85;5.13;;;;;;;3.38;100.00;99522.53;6244134;28;20505;-76
2020/12/07 09:50:56;;;;;;;10.60;6.30;;;;;;;3.35;100.00;99516.59;6246144;28;20159;-75
2020/12/07 09:53:57;;;;;;;10.40;6.15;;;;;;;3.38;100.00;99508.69;6238585;28;20081;-75
2020/12/07 09:56:58;;;;;;;11.82;6.05;;;;;;;3.36;100.00;99515.69;6246130;28;20051;-76
2020/12/07 09:59:59;;;;;;;12.65;7.05;;;;;;;3.42;100.00;99511.09;6246420;28;20053;-76
2020/12/07 10:03:00;;;;;;;16.13;7.60;;;;;;;3.53;100.00;99508.00;6246173;28;20056;-74
2020/12/07 10:06:01;;;;;;;12.40;7.38;;;;;;;3.44;100.00;99496.28;6239781;28;20422;-74
2020/12/07 10:09:02;;;;;;;16.27;8.45;;;;;;;3.45;100.00;99507.50;6245645;28;20132;-74
2020/12/07 10:12:03;;;;;;;15.73;9.77;;;;;;;3.43;100.00;99499.78;6245936;28;20067;-74
2020/12/07 10:15:06;;;;;;;16.52;9.77;;;;;;;3.45;100.00;99497.97;6245714;28;20060;-74
2020/12/07 10:18:07;;;;;;;15.43;9.45;;;;;;;3.46;100.00;99497.06;6245601;28;20045;-74
2020/12/07 10:21:08;;;;;;;16.02;9.55;;;;;;;3.45;100.00;99512.69;6245524;28;20057;-74
2020/12/07 10:24:09;;;;;;;19.35;10.45;;;;;;;3.49;100.00;99507.28;6245989;28;20495;-74
2020/12/07 10:27:10;;;;;;;23.10;11.32;;;;;;;3.50;100.00;99523.75;6245143;28;20041;-75
2020/12/07 10:30:11;;;;;;;24.42;12.30;;;;;;;3.46;100.00;99532.59;6243018;28;20071;-74
2020/12/07 10:33:12;;;;;;;24.58;12.93;;;;;;;3.49;100.00;99546.25;6244418;28;20046;-74
2020/12/07 10:36:13;;;;;;;24.17;12.30;;;;;;;3.46;100.00;99542.97;6245026;28;20041;-74
2020/12/07 10:39:14;;;;;;;21.73;11.20;;;;;;;3.52;100.00;99538.34;6242618;28;20100;-74
2020/12/07 10:42:15;;;;;;;28.92;13.13;;;;;;;3.49;100.00;99548.84;6245625;28;20045;-74
2020/12/07 10:45:17;;;;;;;28.17;13.38;;;;;;;3.50;100.00;99576.53;6245718;28;20049;-74
2020/12/07 10:48:20;;;;;;;30.77;13.63;;;;;;;3.49;100.00;99563.59;6243440;28;20053;-74
2020/12/07 10:51:21;;;;;;;28.58;13.07;;;;;;;3.51;100.00;99564.38;6241459;28;20079;-69
2020/12/07 10:54:22;;;;;;;25.27;13.45;;;;;;;3.57;100.00;99564.09;6245496;28;20116;-74
2020/12/07 10:57:23;;;;;;;29.58;14.25;;;;;;;3.56;100.00;99558.06;6245725;28;20045;-76
2020/12/07 11:00:24;;;;;;;30.23;15.65;;;;;;;3.54;100.00;99556.44;6245695;28;20064;-76
2020/12/07 11:03:25;;;;;;;27.50;13.75;;;;;;;3.55;100.00;99558.16;6246028;28;20057;-76
2020/12/07 11:06:29;;;;;;;30.65;14.02;;;;;;;3.60;100.00;99568.34;6245992;28;20051;-76
2020/12/07 11:09:30;;;;;;;28.67;14.80;;;;;;;3.54;100.00;99578.09;6245611;28;20046;-76
2020/12/07 11:12:31;;;;;;;31.67;15.85;;;;;;;3.53;100.00;99591.13;6246212;28;20050;-76
2020/12/07 11:15:32;;;;;;;35.13;15.73;;;;;;;3.53;100.00;99589.38;6245835;28;20053;-76
2020/12/07 11:18:35;;;;;;;33.55;15.35;;;;;;;3.59;100.00;99593.47;6244297;28;20050;-76
2020/12/07 11:21:36;;;;;;;31.27;16.42;;;;;;;3.60;100.00;99574.38;6244224;28;20049;-76
2020/12/07 11:24:38;;;;;;;30.42;15.88;;;;;;;3.61;100.00;99586.44;6245496;28;20060;-76
2020/12/07 11:27:41;;;;;;;35.20;18.10;;;;;;;3.64;100.00;99590.69;6243477;28;20049;-75
2020/12/07 11:30:42;;;;;;;31.52;16.80;;;;;;;3.63;100.00;99588.97;6244341;28;20046;-76
2020/12/07 11:33:44;;;;;;;33.78;16.30;;;;;;;3.69;100.00;99599.94;6245847;28;20203;-76
2020/12/07 11:36:45;;;;;;;32.60;16.10;;;;;;;3.71;100.00;99603.31;6244999;28;20049;-76
2020/12/07 11:39:51;;;;;;;33.50;17.35;;;;;;;3.68;100.00;99597.41;6230788;28;20072;-75
2020/12/07 11:42:56;;;;;;;30.20;16.23;;;;;;;3.71;100.00;99589.47;6248346;28;20061;-77
2020/12/07 11:45:57;;;;;;;30.65;16.95;;;;;;;3.70;100.00;99590.41;6249353;28;20049;-76
2020/12/07 11:49:00;;;;;;;29.33;16.83;;;;;;;3.70;100.00;99588.66;6248832;28;20061;-75
2020/12/07 11:52:04;;;;;;;28.40;16.23;;;;;;;3.72;100.00;99588.56;6250036;28;20057;-74
2020/12/07 11:55:05;;;;;;;31.30;16.45;;;;;;;3.73;100.00;99591.13;6249489;28;20071;-75
2020/12/07 11:58:06;;;;;;;26.27;14.63;;;;;;;3.78;100.00;99593.50;6249428;28;20042;-75
2020/12/07 12:01:08;;;;;;;27.02;15.00;;;;;;;3.79;100.00;99603.81;6248802;28;20058;-75
2020/12/07 12:04:08;;;;;;;27.45;15.15;;;;;;;3.79;100.00;99601.22;6249827;28;20056;-74
2020/12/07 12:07:09;;;;;;;26.88;14.27;;;;;;;3.86;100.00;99609.63;6248964;28;20042;-74
2020/12/07 12:10:10;;;;;;;27.35;15.25;;;;;;;3.83;100.00;99606.31;6249105;28;20072;-75
2020/12/07 12:13:11;;;;;;;23.52;14.20;;;;;;;3.86;100.00;99613.94;6249394;28;20065;-75
2020/12/07 12:16:13;;;;;;;26.67;14.45;;;;;;;3.87;100.00;99613.06;6249046;28;20645;-75
2020/12/07 12:19:14;;;;;;;19.17;12.48;;;;;;;3.86;100.00;99622.59;6248993;28;20057;-75
2020/12/07 12:22:15;;;;;;;16.95;10.70;;;;;;;3.92;100.00;99631.88;6249001;28;20072;-75
2020/12/07 12:25:16;;;;;;;21.10;12.50;;;;;;;3.89;100.00;99625.06;6249108;28;20053;-76
2020/12/07 12:28:17;;;;;;;16.83;10.55;;;;;;;3.93;100.00;99631.81;6248696;28;20064;-75
2020/12/07 12:31:18;;;;;;;15.95;9.85;;;;;;;3.94;99.78;99643.88;6248563;28;20057;-76
2020/12/07 12:34:19;;;;;;;17.02;10.48;;;;;;;3.92;100.00;99645.72;6248238;28;20072;-76
2020/12/07 12:37:20;;;;;;;18.10;9.77;;;;;;;3.91;99.77;99646.63;6244468;28;20050;-77
2020/12/07 12:40:21;;;;;;;13.80;9.10;;;;;;;3.91;99.41;99641.44;6235145;28;20529;-78
2020/12/07 12:43:22;;;;;;;15.05;10.07;;;;;;;3.91;99.31;99633.66;6236244;28;20087;-77
2020/12/07 12:46:23;;;;;;;13.55;9.23;;;;;;;3.95;99.73;99636.94;6240022;28;20056;-77
2020/12/07 12:49:24;;;;;;;14.07;9.23;;;;;;;3.99;99.54;99638.47;6242295;28;20426;-77
2020/12/07 12:52:25;;;;;;;13.23;9.13;;;;;;;4.00;99.21;99640.19;6241588;28;20056;-77
2020/12/07 12:55:26;;;;;;;13.13;8.27;;;;;;;4.04;98.79;99645.19;6233737;28;20080;-78
2020/12/07 12:58:27;;;;;;;12.00;8.07;;;;;;;3.99;98.57;99654.91;6245052;28;20147;-75
2020/12/07 13:01:28;;;;;;;13.57;8.02;;;;;;;3.98;98.50;99663.63;6241241;28;20429;-76
2020/12/07 13:04:29;;;;;;;12.32;8.43;;;;;;;3.99;98.75;99667.06;6244994;28;20056;-75
2020/12/07 13:07:30;;;;;;;12.45;8.27;;;;;;;4.03;98.99;99666.03;6244664;28;20045;-75
2020/12/07 13:10:31;;;;;;;13.00;8.45;;;;;;;4.06;98.48;99673.72;6247122;28;20061;-76
2020/12/07 13:13:36;;;;;;;13.68;8.25;;;;;;;4.13;98.39;99672.50;6225424;28;20073;-75
2020/12/07 13:16:47;;;;;;;11.63;8.48;;;;;;;4.09;98.53;99678.78;6223105;28;20042;-75
2020/12/07 13:19:48;;;;;;;14.40;8.75;;;;;;;4.07;98.18;99680.59;6223298;28;20046;-75
2020/12/07 13:22:53;;;;;;;12.50;9.13;;;;;;;4.04;98.53;99672.91;6223387;28;20056;-75
2020/12/07 13:26:01;;;;;;;12.68;8.75;;;;;;;4.03;98.19;99666.88;6231764;28;20049;-75
2020/12/07 13:29:02;;;;;;;13.80;8.65;;;;;;;4.00;97.82;99668.78;6245851;28;20045;-74
2020/12/07 13:32:03;;;;;;;12.40;9.27;;;;;;;4.00;98.19;99682.63;6247088;28;20546;-75
2020/12/07 13:35:05;;;;;;;11.35;8.55;;;;;;;4.02;97.35;99686.00;6247523;28;20057;-75
2020/12/07 13:38:06;;;;;;;12.07;9.05;;;;;;;4.04;97.61;99689.38;6247371;28;20052;-75
2020/12/07 13:41:09;;;;;;;14.20;9.07;;;;;;;4.04;97.85;99701.50;6247180;28;20057;-69
2020/12/07 13:44:09;;;;;;;12.80;8.82;;;;;;;4.05;97.46;99706.66;6247317;28;20045;-70
2020/12/07 13:47:11;;;;;;;15.63;8.98;;;;;;;4.00;96.97;99705.19;6246995;28;20057;-74
2020/12/07 13:50:12;;;;;;;12.23;8.48;;;;;;;4.02;97.53;99709.38;6246815;28;20049;-71
2020/12/07 13:53:13;;;;;;;12.07;8.90;;;;;;;4.06;97.78;99707.50;6247411;28;20688;-72
2020/12/07 13:56:14;;;;;;;12.52;9.02;;;;;;;4.10;96.86;99722.06;6246674;28;20049;-75
2020/12/07 13:59:15;;;;;;;10.35;8.02;;;;;;;4.04;96.27;99723.19;6246166;28;20698;-74
2020/12/07 14:02:17;;;;;;;14.88;8.80;;;;;;;4.03;96.32;99729.25;6246984;28;20057;-75
2020/12/07 14:05:18;;;;;;;10.95;8.63;;;;;;;4.03;95.99;99734.47;6246053;28;20056;-74
2020/12/07 14:08:18;;;;;;;10.95;8.48;;;;;;;4.02;96.08;99732.78;6246010;28;20042;-78
2020/12/07 14:11:19;;;;;;;10.85;8.40;;;;;;;4.05;96.54;99750.00;6246202;28;20502;-78
2020/12/07 14:14:20;;;;;;;11.75;8.73;;;;;;;4.07;96.17;99753.38;6246351;28;20052;-78
2020/12/07 14:17:24;;;;;;;12.60;8.32;;;;;;;4.01;95.77;99762.28;6246020;28;20042;-78
2020/12/07 14:20:29;;;;;;;10.90;8.27;;;;;;;4.01;96.61;99764.03;6245901;28;20498;-78